Aviation Digital Data Service (ADDS)

Output produced by METARs form (0330 UTC 19 August 2019)
found at http://www.aviationweather.gov/metar/data/
 
Forecast for: LEMO (MORON (SP-USAFB), ES)
Text: TAF LEMO 190200Z 1903/1912 19004KT CAVOK
Forecast period: 0300 to 1200 UTC 19 August 2019
Forecast type: FROM: standard forecast or significant change
Winds: from the S (190 degrees) at 5 MPH (4 knots; 2.1 m/s)
Visibility: 6 or more miles 10+ km)
Ceiling: unknown
Clouds: missing
Weather: NSW  (no significant weather)
Text: PROB40
Forecast period: 0300 to 0800 UTC 19 August 2019
Forecast type: TEMPORARY: The following changes expected for less than half the time period
Visibility: 1.86 miles (2.99 km)
Ceiling: 1000 feet AGL
Clouds: broken clouds at 1000 feet AGL
Weather: BR  (mist)
Text: TEMPO 1903/1908 3000 BR BKN010
Forecast period: 0300 to 0800 UTC 19 August 2019
Forecast type: TEMPORARY: The following changes expected for less than half the time period
Visibility: 0.19 miles (0.31 km)
Ceiling: indefinite ceiling with vertical visibility of 100 feet AGL
Clouds: obscured sky
Weather: FG  (fog)